createdAt,value
2019-03-26T00:02:20.034Z,7.97
2019-03-26T00:04:48.039Z,7.83
2019-03-26T00:07:16.060Z,8.10
2019-03-26T00:09:44.092Z,8.57
2019-03-26T00:12:12.095Z,8.07
2019-03-26T00:14:40.145Z,7.63
2019-03-26T00:17:08.136Z,8.27
2019-03-26T00:19:36.137Z,8.20
2019-03-26T00:22:04.165Z,7.97
2019-03-26T00:24:32.156Z,8.40
2019-03-26T00:27:00.162Z,7.93
2019-03-26T00:29:28.205Z,8.13
2019-03-26T00:31:56.192Z,7.97
2019-03-26T00:34:24.195Z,8.23
2019-03-26T00:36:52.219Z,8.60
2019-03-26T00:39:20.256Z,8.50
2019-03-26T00:41:48.269Z,8.47
2019-03-26T00:44:16.329Z,8.80
2019-03-26T00:46:44.368Z,9.03
2019-03-26T00:49:12.358Z,8.70
2019-03-26T00:51:40.371Z,9.60
2019-03-26T00:54:08.393Z,9.10
2019-03-26T00:56:36.420Z,9.37
2019-03-26T00:59:04.417Z,9.77
2019-03-26T01:01:32.391Z,10.23
2019-03-26T01:04:00.425Z,10.10
2019-03-26T01:06:28.468Z,11.27
2019-03-26T01:08:56.468Z,11.13
2019-03-26T01:11:24.469Z,10.57
2019-03-26T01:13:52.529Z,10.03
2019-03-26T01:16:20.509Z,10.33
2019-03-26T01:18:48.531Z,9.60
2019-03-26T01:21:16.530Z,7.90
2019-03-26T01:23:44.547Z,9.27
2019-03-26T01:26:12.537Z,8.27
2019-03-26T01:28:40.564Z,9.87
2019-03-26T01:31:08.620Z,10.20
2019-03-26T01:33:36.625Z,9.90
2019-03-26T01:36:04.601Z,11.20
2019-03-26T01:38:32.615Z,11.20
2019-03-26T01:41:00.619Z,11.27
2019-03-26T01:43:28.647Z,11.10
2019-03-26T01:45:56.640Z,10.17
2019-03-26T01:48:24.634Z,10.93
2019-03-26T01:50:52.718Z,10.47
2019-03-26T01:53:20.665Z,10.67
2019-03-26T01:55:48.697Z,11.10
2019-03-26T01:58:16.679Z,10.30
2019-03-26T02:00:44.720Z,10.87
2019-03-26T02:03:12.750Z,11.03
2019-03-26T02:05:40.737Z,9.73
2019-03-26T02:08:08.750Z,10.30
2019-03-26T02:10:36.748Z,9.73
2019-03-26T02:13:04.819Z,10.30
2019-03-26T02:15:33.470Z,10.57
2019-03-26T02:18:01.606Z,10.20
2019-03-26T02:20:29.717Z,10.37
2019-03-26T02:22:57.939Z,9.70
2019-03-26T02:25:25.938Z,9.07
2019-03-26T02:27:53.915Z,9.40
2019-03-26T02:30:21.942Z,10.27
2019-03-26T02:32:49.940Z,9.50
2019-03-26T02:35:19.182Z,10.47
2019-03-26T02:37:47.584Z,11.77
2019-03-26T02:40:15.614Z,10.70
2019-03-26T02:42:43.608Z,9.97
2019-03-26T02:45:11.645Z,11.17
2019-03-26T02:47:39.631Z,11.03
2019-03-26T02:50:07.842Z,10.23
2019-03-26T02:52:35.901Z,10.70
2019-03-26T02:55:04.138Z,10.03
2019-03-26T02:57:32.148Z,10.23
2019-03-26T03:00:00.502Z,10.13
2019-03-26T03:02:28.552Z,9.70
2019-03-26T03:04:56.536Z,10.47
2019-03-26T03:07:24.575Z,10.50
2019-03-26T03:09:52.552Z,10.70
2019-03-26T03:12:20.564Z,10.97
2019-03-26T03:14:48.588Z,10.30
2019-03-26T03:17:16.596Z,10.83
2019-03-26T03:19:44.631Z,10.23
2019-03-26T03:22:12.641Z,10.43
2019-03-26T03:24:40.634Z,10.30
2019-03-26T03:27:08.686Z,10.10
2019-03-26T03:29:36.691Z,9.77
2019-03-26T03:32:04.760Z,11.10
2019-03-26T03:34:32.851Z,11.37
2019-03-26T03:37:01.123Z,10.83
2019-03-26T03:39:29.114Z,10.93
2019-03-26T03:41:57.149Z,11.43
2019-03-26T03:44:25.175Z,11.27
2019-03-26T03:46:54.488Z,11.40
2019-03-26T03:49:24.216Z,11.53
2019-03-26T03:51:52.728Z,12.67
2019-03-26T03:54:21.543Z,13.37
2019-03-26T03:56:52.355Z,12.47
2019-03-26T03:59:21.790Z,12.07
2019-03-26T04:01:49.807Z,11.43
2019-03-26T04:04:17.823Z,11.87
2019-03-26T04:06:45.814Z,12.33
2019-03-26T04:09:13.837Z,11.90
2019-03-26T04:11:41.850Z,12.33
2019-03-26T04:14:09.911Z,12.67
2019-03-26T04:16:37.897Z,13.53
2019-03-26T04:19:05.942Z,13.00
2019-03-26T04:21:33.953Z,14.13
2019-03-26T04:24:01.941Z,14.53
2019-03-26T04:26:29.980Z,13.60
2019-03-26T04:28:57.977Z,13.20
2019-03-26T04:31:25.982Z,14.37
2019-03-26T04:33:54.025Z,13.87
2019-03-26T04:36:25.968Z,13.47
2019-03-26T04:38:51.848Z,13.10
2019-03-26T04:41:19.841Z,13.53
2019-03-26T04:43:47.882Z,14.03
2019-03-26T04:46:15.906Z,13.70
2019-03-26T04:48:43.900Z,13.03
2019-03-26T04:51:11.930Z,13.40
2019-03-26T04:53:39.924Z,13.83
2019-03-26T04:56:07.939Z,14.10
2019-03-26T04:58:35.935Z,12.90
2019-03-26T05:01:03.981Z,12.07
2019-03-26T05:03:31.988Z,11.87
2019-03-26T05:06:00.010Z,12.80
2019-03-26T05:08:27.994Z,12.20
2019-03-26T05:10:55.998Z,13.10
2019-03-26T05:13:24.029Z,11.57
2019-03-26T05:15:52.005Z,12.67
2019-03-26T05:18:20.010Z,12.10
2019-03-26T05:20:48.023Z,12.43
2019-03-26T05:23:16.026Z,13.03
2019-03-26T05:25:44.049Z,11.67
2019-03-26T05:28:12.077Z,12.53
2019-03-26T05:30:40.108Z,13.13
2019-03-26T05:33:08.130Z,12.97
2019-03-26T05:35:36.140Z,12.13
2019-03-26T05:38:04.197Z,12.30
2019-03-26T05:40:32.203Z,12.47
2019-03-26T05:43:00.256Z,13.23
2019-03-26T05:45:28.259Z,12.10
2019-03-26T05:47:56.340Z,12.67
2019-03-26T05:50:24.327Z,12.50
2019-03-26T05:52:52.324Z,12.53
2019-03-26T05:55:20.387Z,12.43
2019-03-26T05:57:48.398Z,12.77
2019-03-26T06:00:21.516Z,10.97
2019-03-26T06:02:49.552Z,11.37
2019-03-26T06:05:17.560Z,11.73
2019-03-26T06:07:45.585Z,11.27
2019-03-26T06:10:13.727Z,11.00
2019-03-26T06:12:41.741Z,11.03
2019-03-26T06:15:10.097Z,10.67
2019-03-26T06:17:38.107Z,10.13
2019-03-26T06:20:07.018Z,9.77
2019-03-26T06:22:35.112Z,9.57
2019-03-26T06:25:03.240Z,10.03
2019-03-26T06:27:31.269Z,9.67
2019-03-26T06:29:59.263Z,9.97
2019-03-26T06:32:27.244Z,9.83
2019-03-26T06:34:55.330Z,9.93
2019-03-26T06:37:23.337Z,10.20
2019-03-26T06:39:51.400Z,11.00
2019-03-26T06:42:19.399Z,11.20
2019-03-26T06:44:47.437Z,10.77
2019-03-26T06:47:15.485Z,12.37
2019-03-26T06:49:43.511Z,11.57
2019-03-26T06:52:11.553Z,11.20
2019-03-26T06:54:39.537Z,12.13
2019-03-26T06:57:07.768Z,12.33
2019-03-26T06:59:35.772Z,11.47
2019-03-26T07:02:03.775Z,12.50
2019-03-26T07:04:31.930Z,12.13
2019-03-26T07:06:59.956Z,11.33
2019-03-26T07:09:28.205Z,11.17
2019-03-26T07:11:56.196Z,10.67
2019-03-26T07:14:24.222Z,11.03
2019-03-26T07:16:52.256Z,11.60
2019-03-26T07:19:20.285Z,11.73
2019-03-26T07:21:49.824Z,10.27
2019-03-26T07:24:18.040Z,12.10
2019-03-26T07:26:46.043Z,10.23
2019-03-26T07:29:14.080Z,11.97
2019-03-26T07:31:42.135Z,10.83
2019-03-26T07:34:10.169Z,10.83
2019-03-26T07:36:38.211Z,10.63
2019-03-26T07:39:06.382Z,10.03
2019-03-26T07:41:34.381Z,12.70
2019-03-26T07:44:02.386Z,11.20
2019-03-26T07:46:30.391Z,8.83
2019-03-26T07:48:58.619Z,9.90
2019-03-26T07:51:26.612Z,9.73
2019-03-26T07:53:54.656Z,9.17
2019-03-26T07:56:22.659Z,10.00
2019-03-26T07:58:50.705Z,8.90
2019-03-26T08:01:18.728Z,9.07
2019-03-26T08:03:46.733Z,8.70
2019-03-26T08:06:14.777Z,9.70
2019-03-26T08:08:42.793Z,9.03
2019-03-26T08:11:10.855Z,8.63
2019-03-26T08:13:41.027Z,9.00
2019-03-26T08:16:08.748Z,8.27
2019-03-26T08:18:36.766Z,7.97
2019-03-26T08:21:04.762Z,7.80
2019-03-26T08:23:32.753Z,8.40
2019-03-26T08:26:00.772Z,8.23
2019-03-26T08:28:28.758Z,8.63
2019-03-26T08:30:56.801Z,8.00
2019-03-26T08:33:24.789Z,8.00
2019-03-26T08:35:52.827Z,8.07
2019-03-26T08:38:20.832Z,9.43
2019-03-26T08:40:48.848Z,7.27
2019-03-26T08:43:16.857Z,8.23
2019-03-26T08:45:44.906Z,7.20
2019-03-26T08:48:12.898Z,9.03
2019-03-26T08:50:40.881Z,9.03
2019-03-26T08:53:08.987Z,7.77
2019-03-26T08:55:37.053Z,8.13
2019-03-26T08:58:05.065Z,7.90
2019-03-26T09:00:33.064Z,8.53
2019-03-26T09:03:01.083Z,7.10
2019-03-26T09:05:29.099Z,7.37
2019-03-26T09:07:57.133Z,8.13
2019-03-26T09:10:25.152Z,7.33
2019-03-26T09:12:53.157Z,8.77
2019-03-26T09:15:21.232Z,8.87
2019-03-26T09:17:49.260Z,7.80
2019-03-26T09:20:17.274Z,8.37
2019-03-26T09:22:45.316Z,8.37
2019-03-26T09:25:13.739Z,7.47
2019-03-26T09:27:41.735Z,7.40
2019-03-26T09:30:10.369Z,7.50
2019-03-26T09:32:38.628Z,7.57
2019-03-26T09:35:07.429Z,7.57
2019-03-26T09:37:35.455Z,7.97
2019-03-26T09:40:03.557Z,7.23
2019-03-26T09:42:31.572Z,8.20
2019-03-26T09:44:59.610Z,7.33
2019-03-26T09:47:27.610Z,6.40
2019-03-26T09:49:55.605Z,7.70
2019-03-26T09:52:23.649Z,7.73
2019-03-26T09:54:51.697Z,7.70
2019-03-26T09:57:19.735Z,8.00
2019-03-26T09:59:47.788Z,8.30
2019-03-26T10:02:15.853Z,8.63
2019-03-26T10:04:43.873Z,7.37
2019-03-26T10:07:21.337Z,9.53
2019-03-26T10:09:41.690Z,8.33
2019-03-26T10:12:09.706Z,7.10
2019-03-26T10:14:40.213Z,6.67
2019-03-26T10:17:08.279Z,7.20
2019-03-26T10:19:36.289Z,6.57
2019-03-26T10:22:04.323Z,8.67
2019-03-26T10:24:32.326Z,5.13
2019-03-26T10:27:00.387Z,6.43
2019-03-26T10:29:30.601Z,6.27
2019-03-26T10:31:58.225Z,5.70
2019-03-26T10:34:26.214Z,6.33
2019-03-26T10:36:54.430Z,6.83
2019-03-26T10:39:22.469Z,5.93
2019-03-26T10:41:50.457Z,5.80
2019-03-26T10:44:18.476Z,6.90
2019-03-26T10:46:46.460Z,7.20
2019-03-26T10:49:14.454Z,6.67
2019-03-26T10:51:42.496Z,6.60
2019-03-26T10:54:10.507Z,6.33
2019-03-26T10:56:38.564Z,6.40
2019-03-26T10:59:06.595Z,6.17
2019-03-26T11:01:34.586Z,6.37
2019-03-26T11:04:02.711Z,6.60
2019-03-26T11:06:30.741Z,5.53
2019-03-26T11:08:58.728Z,5.70
2019-03-26T11:11:29.069Z,5.20
2019-03-26T11:13:58.829Z,4.90
2019-03-26T11:16:26.883Z,5.27
2019-03-26T11:18:54.921Z,6.03
2019-03-26T11:21:22.939Z,5.30
2019-03-26T11:23:50.937Z,4.50
2019-03-26T11:26:18.938Z,5.10
2019-03-26T11:28:46.964Z,5.37
2019-03-26T11:31:14.985Z,5.17
2019-03-26T11:33:43.034Z,6.10
2019-03-26T11:36:11.069Z,4.77
2019-03-26T11:38:39.095Z,4.50
2019-03-26T11:41:07.080Z,4.67
2019-03-26T11:43:35.344Z,4.37
2019-03-26T11:46:03.346Z,5.20
2019-03-26T11:48:31.333Z,4.97
2019-03-26T11:50:59.360Z,5.20
2019-03-26T11:53:27.383Z,4.97
2019-03-26T11:55:55.413Z,4.47
2019-03-26T11:58:30.453Z,4.10
2019-03-26T12:00:53.251Z,4.33
2019-03-26T12:03:21.287Z,3.83
2019-03-26T12:05:49.267Z,4.00
2019-03-26T12:08:17.287Z,4.17
2019-03-26T12:10:45.356Z,4.13
2019-03-26T12:13:13.365Z,4.10
2019-03-26T12:15:41.396Z,3.90
2019-03-26T12:18:09.419Z,4.30
2019-03-26T12:20:37.438Z,4.43
2019-03-26T12:23:05.487Z,3.80
2019-03-26T12:25:33.516Z,4.47
2019-03-26T12:28:01.563Z,4.13
2019-03-26T12:30:34.604Z,4.00
2019-03-26T12:33:02.674Z,4.70
2019-03-26T12:35:31.051Z,3.83
2019-03-26T12:37:59.060Z,3.80
2019-03-26T12:40:27.034Z,4.47
2019-03-26T12:42:55.084Z,4.47
2019-03-26T12:45:25.992Z,4.40
2019-03-26T12:47:54.024Z,4.17
2019-03-26T12:50:22.030Z,4.47
2019-03-26T12:52:50.069Z,4.10
2019-03-26T12:55:18.045Z,3.40
2019-03-26T12:57:46.025Z,5.07
2019-03-26T13:00:14.290Z,3.70
2019-03-26T13:02:42.292Z,4.13
2019-03-26T13:05:10.435Z,3.40
2019-03-26T13:07:38.445Z,4.00
2019-03-26T13:10:13.617Z,4.13
2019-03-26T13:12:37.368Z,3.37
2019-03-26T13:15:05.743Z,4.40
2019-03-26T13:17:33.773Z,4.17
2019-03-26T13:20:01.860Z,4.20
2019-03-26T13:22:29.877Z,5.20
2019-03-26T13:24:57.883Z,4.63
2019-03-26T13:27:25.918Z,4.73
2019-03-26T13:29:53.940Z,2.93
2019-03-26T13:32:22.031Z,3.60
2019-03-26T13:34:50.049Z,4.23
2019-03-26T13:37:18.055Z,4.60
2019-03-26T13:39:46.104Z,3.67
2019-03-26T13:42:14.101Z,3.80
2019-03-26T13:44:42.126Z,4.43
2019-03-26T13:47:10.153Z,4.27
2019-03-26T13:49:38.156Z,3.83
2019-03-26T13:52:06.212Z,3.73
2019-03-26T13:54:34.242Z,4.23
2019-03-26T13:57:02.241Z,4.00
2019-03-26T13:59:30.283Z,3.80
2019-03-26T14:01:59.216Z,4.23
2019-03-26T14:04:27.303Z,3.70
2019-03-26T14:06:55.389Z,3.93
2019-03-26T14:09:23.408Z,3.77
2019-03-26T14:11:51.410Z,4.17
2019-03-26T14:14:19.497Z,4.33
2019-03-26T14:16:47.511Z,4.20
2019-03-26T14:19:15.543Z,4.20
2019-03-26T14:21:43.572Z,4.30
2019-03-26T14:24:13.311Z,3.93
2019-03-26T14:26:41.526Z,4.07
2019-03-26T14:29:09.552Z,3.60
2019-03-26T14:31:37.564Z,4.17
2019-03-26T14:34:05.576Z,3.90
2019-03-26T14:36:33.624Z,3.33
2019-03-26T14:39:01.710Z,3.70
2019-03-26T14:41:29.739Z,3.57
2019-03-26T14:43:57.721Z,3.10
2019-03-26T14:46:25.698Z,3.33
2019-03-26T14:48:53.715Z,3.43
2019-03-26T14:51:23.264Z,3.03
2019-03-26T14:53:51.505Z,3.37
2019-03-26T14:56:19.631Z,3.73
2019-03-26T14:58:47.657Z,3.80
2019-03-26T15:01:15.691Z,3.90
2019-03-26T15:03:43.697Z,7.33
2019-03-26T15:06:11.789Z,3.70
2019-03-26T15:08:39.817Z,3.93
2019-03-26T15:11:08.588Z,3.60
2019-03-26T15:13:36.771Z,3.33
2019-03-26T15:16:04.828Z,3.23
2019-03-26T15:18:32.879Z,3.00
2019-03-26T15:21:00.882Z,2.90
2019-03-26T15:23:28.905Z,3.60
2019-03-26T15:25:56.942Z,2.50
2019-03-26T15:28:24.948Z,3.70
2019-03-26T15:30:52.937Z,3.93
2019-03-26T15:33:20.981Z,3.40
2019-03-26T15:35:49.007Z,3.37
2019-03-26T15:38:17.049Z,3.13
2019-03-26T15:40:45.116Z,3.70
2019-03-26T15:43:13.159Z,3.20
2019-03-26T15:45:41.207Z,3.03
2019-03-26T15:48:09.203Z,3.53
2019-03-26T15:50:42.053Z,3.60
2019-03-26T15:53:10.488Z,4.83
2019-03-26T15:55:38.761Z,3.90
2019-03-26T15:58:06.780Z,3.37
2019-03-26T16:00:34.853Z,4.37
2019-03-26T16:03:02.858Z,3.60
2019-03-26T16:05:30.887Z,3.57
2019-03-26T16:08:00.614Z,4.00
2019-03-26T16:10:28.723Z,4.10
2019-03-26T16:12:56.736Z,4.10
2019-03-26T16:15:24.766Z,3.50
2019-03-26T16:17:52.790Z,3.90
2019-03-26T16:20:20.852Z,3.67
2019-03-26T16:22:48.838Z,3.30
2019-03-26T16:25:16.839Z,3.90
2019-03-26T16:27:44.873Z,3.33
2019-03-26T16:30:13.772Z,3.00
2019-03-26T16:32:41.826Z,3.00
2019-03-26T16:35:10.099Z,3.07
2019-03-26T16:37:38.087Z,3.10
2019-03-26T16:40:06.154Z,2.80
2019-03-26T16:42:34.234Z,3.00
2019-03-26T16:45:02.301Z,2.83
2019-03-26T16:47:30.302Z,3.13
2019-03-26T16:49:58.329Z,2.77
2019-03-26T16:52:26.778Z,2.87
2019-03-26T16:54:54.989Z,3.60
2019-03-26T16:57:22.989Z,3.20
2019-03-26T16:59:50.968Z,3.20
2019-03-26T17:02:19.126Z,3.30
2019-03-26T17:04:47.139Z,3.50
2019-03-26T17:07:15.183Z,3.30
2019-03-26T17:09:43.206Z,2.90
2019-03-26T17:12:11.235Z,3.03
2019-03-26T17:14:39.288Z,3.00
2019-03-26T17:17:07.308Z,3.20
2019-03-26T17:19:35.365Z,3.10
2019-03-26T17:22:03.362Z,3.60
2019-03-26T17:24:31.361Z,3.33
2019-03-26T17:26:59.419Z,3.50
2019-03-26T17:29:27.426Z,3.50
2019-03-26T17:31:58.445Z,3.97
2019-03-26T17:34:26.507Z,4.37
2019-03-26T17:36:54.563Z,4.20
2019-03-26T17:39:22.662Z,4.20
2019-03-26T17:41:50.675Z,4.00
2019-03-26T17:44:18.730Z,3.80
2019-03-26T17:46:46.792Z,3.60
2019-03-26T17:49:14.785Z,4.03
2019-03-26T17:51:42.841Z,3.70
2019-03-26T17:54:10.919Z,4.40
2019-03-26T17:56:39.011Z,3.50
2019-03-26T17:59:07.092Z,4.23
2019-03-26T18:01:35.153Z,4.27
2019-03-26T18:04:03.275Z,4.27
2019-03-26T18:06:31.309Z,4.30
2019-03-26T18:08:59.369Z,4.20
2019-03-26T18:11:27.448Z,4.57
2019-03-26T18:13:55.473Z,5.50
2019-03-26T18:16:23.471Z,4.70
2019-03-26T18:18:54.727Z,4.83
2019-03-26T18:21:21.298Z,4.60
2019-03-26T18:23:49.374Z,5.40
2019-03-26T18:26:17.385Z,5.00
2019-03-26T18:28:45.433Z,4.50
2019-03-26T18:31:13.576Z,5.23
2019-03-26T18:33:41.668Z,5.17
2019-03-26T18:36:09.702Z,5.20
2019-03-26T18:38:37.759Z,5.37
2019-03-26T18:41:05.791Z,4.83
2019-03-26T18:43:33.830Z,5.30
2019-03-26T18:46:01.943Z,5.27
2019-03-26T18:48:29.949Z,5.57
2019-03-26T18:50:57.946Z,5.80
2019-03-26T18:53:26.111Z,5.67
2019-03-26T18:55:54.210Z,5.47
2019-03-26T18:58:22.251Z,5.73
2019-03-26T19:00:50.332Z,6.00
2019-03-26T19:03:18.305Z,5.30
2019-03-26T19:05:46.361Z,6.60
2019-03-26T19:08:14.445Z,5.97
2019-03-26T19:10:42.581Z,6.23
2019-03-26T19:13:19.418Z,5.50
2019-03-26T19:15:40.448Z,5.67
2019-03-26T19:18:08.529Z,6.23
2019-03-26T19:20:36.592Z,6.47
2019-03-26T19:23:04.693Z,6.23
2019-03-26T19:25:32.781Z,6.10
2019-03-26T19:28:00.844Z,6.47
2019-03-26T19:30:28.953Z,6.03
2019-03-26T19:32:57.846Z,6.30
2019-03-26T19:35:26.139Z,7.35
2019-03-26T19:37:54.552Z,6.90
2019-03-26T19:46:46.862Z,6.80
2019-03-26T19:49:14.948Z,6.90
2019-03-26T19:51:43.086Z,7.23
2019-03-26T19:54:11.151Z,6.83
2019-03-26T19:56:39.218Z,7.83
2019-03-26T19:59:07.263Z,8.17
2019-03-26T20:01:35.318Z,7.30
2019-03-26T20:04:03.446Z,7.27
2019-03-26T20:06:31.431Z,7.00
2019-03-26T20:08:59.671Z,7.43
2019-03-26T20:11:27.668Z,7.53
2019-03-26T20:13:57.729Z,7.37
2019-03-26T20:16:27.257Z,7.40
2019-03-26T20:18:55.611Z,7.63
2019-03-26T20:21:23.782Z,7.03
2019-03-26T20:23:51.788Z,6.87
2019-03-26T20:26:19.849Z,6.90
2019-03-26T20:28:47.861Z,7.53
2019-03-26T20:31:15.881Z,8.57
2019-03-26T20:33:43.969Z,6.83
2019-03-26T20:36:11.998Z,7.63
2019-03-26T20:38:40.020Z,7.70
2019-03-26T20:41:08.077Z,7.63
2019-03-26T20:43:37.620Z,7.37
2019-03-26T20:46:05.838Z,8.10
2019-03-26T20:48:33.857Z,7.80
2019-03-26T20:51:01.873Z,7.73
2019-03-26T20:53:29.956Z,8.27
2019-03-26T20:55:58.060Z,7.77
2019-03-26T20:58:26.065Z,13.87
2019-03-26T21:00:54.102Z,8.23
2019-03-26T21:03:22.111Z,7.87
2019-03-26T21:05:50.174Z,10.33
2019-03-26T21:08:18.178Z,8.33
2019-03-26T21:10:46.224Z,8.43
2019-03-26T21:13:14.290Z,7.80
2019-03-26T21:15:42.805Z,7.97
2019-03-26T21:18:12.412Z,8.00
2019-03-26T21:20:40.479Z,8.23
2019-03-26T21:23:08.500Z,7.90
2019-03-26T21:25:36.547Z,8.83
2019-03-26T21:28:04.840Z,8.17
2019-03-26T21:30:32.922Z,8.77
2019-03-26T21:33:00.968Z,8.00
2019-03-26T21:35:29.208Z,8.67
2019-03-26T21:37:57.400Z,9.23
2019-03-26T21:40:25.398Z,8.33
2019-03-26T21:42:53.421Z,8.37
2019-03-26T21:45:33.377Z,8.63
2019-03-26T21:48:01.636Z,8.30
2019-03-26T21:50:29.655Z,8.87
2019-03-26T21:52:57.883Z,8.13
2019-03-26T21:55:25.879Z,8.23
2019-03-26T21:57:53.938Z,8.53
2019-03-26T22:00:21.970Z,7.50
2019-03-26T22:02:49.975Z,7.50
2019-03-26T22:05:17.961Z,7.93
2019-03-26T22:07:46.008Z,7.70
2019-03-26T22:10:14.247Z,8.27
2019-03-26T22:12:42.554Z,8.07
2019-03-26T22:15:11.521Z,8.30
2019-03-26T22:17:39.524Z,8.47
2019-03-26T22:20:07.881Z,8.07
2019-03-26T22:22:35.941Z,7.93
2019-03-26T22:25:04.447Z,7.23
2019-03-26T22:27:32.539Z,7.67
2019-03-26T22:30:00.559Z,7.47
2019-03-26T22:32:28.569Z,8.40
2019-03-26T22:34:56.580Z,6.83
2019-03-26T22:37:24.587Z,7.57
2019-03-26T22:39:52.594Z,8.63
2019-03-26T22:42:20.642Z,8.47
2019-03-26T22:44:48.743Z,9.00
2019-03-26T22:47:16.774Z,7.57
2019-03-26T22:49:44.816Z,6.90
2019-03-26T22:52:12.869Z,8.60
2019-03-26T22:54:40.902Z,9.90
2019-03-26T22:57:08.888Z,10.20
2019-03-26T22:59:36.910Z,9.90
2019-03-26T23:02:04.942Z,9.67
2019-03-26T23:04:32.928Z,8.30
2019-03-26T23:07:00.943Z,8.93
2019-03-26T23:09:28.996Z,7.60
2019-03-26T23:11:57.030Z,8.60
2019-03-26T23:14:25.017Z,9.97
2019-03-26T23:16:53.027Z,10.50
2019-03-26T23:19:21.013Z,11.10
2019-03-26T23:21:49.041Z,11.40
2019-03-26T23:24:17.033Z,10.67
2019-03-26T23:26:45.077Z,10.83
2019-03-26T23:29:13.051Z,10.13
2019-03-26T23:31:41.080Z,10.80
2019-03-26T23:34:09.061Z,10.97
2019-03-26T23:36:37.032Z,12.70
2019-03-26T23:39:06.348Z,10.87
2019-03-26T23:41:34.349Z,11.37
2019-03-26T23:44:02.342Z,13.17
2019-03-26T23:46:30.378Z,12.37
2019-03-26T23:48:58.385Z,12.37
2019-03-26T23:51:26.414Z,13.60
2019-03-26T23:53:54.395Z,12.27
2019-03-26T23:56:22.434Z,13.70
2019-03-26T23:58:50.499Z,13.53
